sensor_id;sensor_type;location;lat;lon;timestamp;pressure;altitude;pressure_sealevel;temperature;humidity
68380;BME280;57711;53.196;19.638;2023-05-23T00:00:02;100174.96;;;15.96;43.42
68380;BME280;57711;53.196;19.638;2023-05-23T00:02:57;100179.27;;;15.94;43.40
68380;BME280;57711;53.196;19.638;2023-05-23T00:05:27;100178.73;;;15.92;43.40
68380;BME280;57711;53.196;19.638;2023-05-23T00:07:55;100181.03;;;15.89;43.34
68380;BME280;57711;53.196;19.638;2023-05-23T00:10:22;100172.96;;;15.86;43.53
68380;BME280;57711;53.196;19.638;2023-05-23T00:12:49;100173.23;;;15.84;43.50
68380;BME280;57711;53.196;19.638;2023-05-23T00:15:18;100172.56;;;15.83;43.57
68380;BME280;57711;53.196;19.638;2023-05-23T00:17:45;100166.70;;;15.80;43.49
68380;BME280;57711;53.196;19.638;2023-05-23T00:20:13;100171.95;;;15.79;43.62
68380;BME280;57711;53.196;19.638;2023-05-23T00:22:42;100166.19;;;15.77;43.87
68380;BME280;57711;53.196;19.638;2023-05-23T00:25:09;100169.46;;;15.75;43.74
68380;BME280;57711;53.196;19.638;2023-05-23T00:27:36;100170.77;;;15.73;43.88
68380;BME280;57711;53.196;19.638;2023-05-23T00:30:04;100171.32;;;15.71;43.82
68380;BME280;57711;53.196;19.638;2023-05-23T00:32:31;100171.70;;;15.70;43.88
68380;BME280;57711;53.196;19.638;2023-05-23T00:34:59;100171.73;;;15.66;44.00
68380;BME280;57711;53.196;19.638;2023-05-23T00:37:26;100171.07;;;15.64;44.03
68380;BME280;57711;53.196;19.638;2023-05-23T00:39:54;100168.96;;;15.61;43.97
68380;BME280;57711;53.196;19.638;2023-05-23T00:42:21;100167.47;;;15.58;44.02
68380;BME280;57711;53.196;19.638;2023-05-23T00:44:48;100167.44;;;15.56;44.04
68380;BME280;57711;53.196;19.638;2023-05-23T00:47:16;100164.64;;;15.53;44.03
68380;BME280;57711;53.196;19.638;2023-05-23T00:49:43;100164.78;;;15.50;44.05
68380;BME280;57711;53.196;19.638;2023-05-23T00:52:11;100160.38;;;15.47;44.24
68380;BME280;57711;53.196;19.638;2023-05-23T00:54:38;100157.02;;;15.44;44.07
68380;BME280;57711;53.196;19.638;2023-05-23T00:57:05;100152.04;;;15.40;44.21
68380;BME280;57711;53.196;19.638;2023-05-23T00:59:34;100151.25;;;15.37;44.35
68380;BME280;57711;53.196;19.638;2023-05-23T01:02:03;100152.04;;;15.35;44.38
68380;BME280;57711;53.196;19.638;2023-05-23T01:04:31;100150.34;;;15.34;44.51
68380;BME280;57711;53.196;19.638;2023-05-23T01:07:00;100152.48;;;15.33;44.29
68380;BME280;57711;53.196;19.638;2023-05-23T01:09:28;100152.31;;;15.29;44.49
68380;BME280;57711;53.196;19.638;2023-05-23T01:17:51;100153.44;;;15.26;44.53
68380;BME280;57711;53.196;19.638;2023-05-23T01:20:23;100153.30;;;15.24;44.56
68380;BME280;57711;53.196;19.638;2023-05-23T01:25:46;100153.61;;;15.21;44.66
68380;BME280;57711;53.196;19.638;2023-05-23T01:28:17;100153.61;;;15.19;44.75
68380;BME280;57711;53.196;19.638;2023-05-23T01:30:50;100152.61;;;15.17;44.84
68380;BME280;57711;53.196;19.638;2023-05-23T01:33:19;100151.90;;;15.15;44.85
68380;BME280;57711;53.196;19.638;2023-05-23T01:35:46;100149.64;;;15.12;44.85
68380;BME280;57711;53.196;19.638;2023-05-23T01:38:14;100144.28;;;15.09;45.07
68380;BME280;57711;53.196;19.638;2023-05-23T01:40:41;100143.36;;;15.06;44.73
68380;BME280;57711;53.196;19.638;2023-05-23T01:43:09;100141.47;;;15.04;44.80
68380;BME280;57711;53.196;19.638;2023-05-23T01:45:36;100140.20;;;15.02;44.86
68380;BME280;57711;53.196;19.638;2023-05-23T01:48:04;100140.59;;;15.00;45.00
68380;BME280;57711;53.196;19.638;2023-05-23T01:50:32;100141.38;;;14.98;44.89
68380;BME280;57711;53.196;19.638;2023-05-23T01:53:00;100141.59;;;14.96;44.97
68380;BME280;57711;53.196;19.638;2023-05-23T01:55:27;100138.90;;;14.92;44.92
68380;BME280;57711;53.196;19.638;2023-05-23T01:57:55;100138.48;;;14.89;45.05
68380;BME280;57711;53.196;19.638;2023-05-23T02:00:24;100144.89;;;14.87;45.06
68380;BME280;57711;53.196;19.638;2023-05-23T02:02:52;100141.73;;;14.85;45.06
68380;BME280;57711;53.196;19.638;2023-05-23T02:05:19;100140.64;;;14.83;45.21
68380;BME280;57711;53.196;19.638;2023-05-23T02:07:46;100137.69;;;14.80;45.10
68380;BME280;57711;53.196;19.638;2023-05-23T02:10:16;100135.56;;;14.78;45.17
68380;BME280;57711;53.196;19.638;2023-05-23T02:12:43;100138.05;;;14.77;45.11
68380;BME280;57711;53.196;19.638;2023-05-23T02:15:11;100133.96;;;14.76;45.48
68380;BME280;57711;53.196;19.638;2023-05-23T02:17:38;100130.27;;;14.75;45.38
68380;BME280;57711;53.196;19.638;2023-05-23T02:20:08;100128.54;;;14.74;45.48
68380;BME280;57711;53.196;19.638;2023-05-23T02:22:37;100130.77;;;14.70;45.51
68380;BME280;57711;53.196;19.638;2023-05-23T02:25:05;100130.12;;;14.68;45.53
68380;BME280;57711;53.196;19.638;2023-05-23T02:27:32;100128.53;;;14.65;45.60
68380;BME280;57711;53.196;19.638;2023-05-23T02:29:59;100127.27;;;14.64;45.36
68380;BME280;57711;53.196;19.638;2023-05-23T02:32:27;100125.42;;;14.60;45.40
68380;BME280;57711;53.196;19.638;2023-05-23T02:34:56;100124.47;;;14.61;45.69
68380;BME280;57711;53.196;19.638;2023-05-23T02:37:24;100121.23;;;14.61;45.69
68380;BME280;57711;53.196;19.638;2023-05-23T02:39:51;100120.30;;;14.59;45.63
68380;BME280;57711;53.196;19.638;2023-05-23T02:42:20;100119.92;;;14.57;45.71
68380;BME280;57711;53.196;19.638;2023-05-23T02:44:47;100116.91;;;14.57;45.69
68380;BME280;57711;53.196;19.638;2023-05-23T02:47:15;100116.34;;;14.55;45.90
68380;BME280;57711;53.196;19.638;2023-05-23T02:49:42;100115.59;;;14.55;46.01
68380;BME280;57711;53.196;19.638;2023-05-23T02:52:10;100113.88;;;14.56;45.94
68380;BME280;57711;53.196;19.638;2023-05-23T02:54:37;100112.23;;;14.54;45.89
68380;BME280;57711;53.196;19.638;2023-05-23T02:57:05;100115.14;;;14.54;46.03
68380;BME280;57711;53.196;19.638;2023-05-23T02:59:34;100110.36;;;14.55;46.03
68380;BME280;57711;53.196;19.638;2023-05-23T03:02:01;100108.95;;;14.57;46.06
68380;BME280;57711;53.196;19.638;2023-05-23T03:04:28;100107.68;;;14.56;46.01
68380;BME280;57711;53.196;19.638;2023-05-23T03:06:56;100105.46;;;14.57;46.15
68380;BME280;57711;53.196;19.638;2023-05-23T03:09:25;100109.08;;;14.59;46.19
68380;BME280;57711;53.196;19.638;2023-05-23T03:11:52;100103.21;;;14.61;46.24
68380;BME280;57711;53.196;19.638;2023-05-23T03:14:20;100105.39;;;14.62;46.39
68380;BME280;57711;53.196;19.638;2023-05-23T03:16:47;100103.08;;;14.64;46.28
68380;BME280;57711;53.196;19.638;2023-05-23T03:19:15;100105.23;;;14.62;46.38
68380;BME280;57711;53.196;19.638;2023-05-23T03:21:42;100105.94;;;14.61;46.64
68380;BME280;57711;53.196;19.638;2023-05-23T03:24:10;100103.85;;;14.62;46.44
68380;BME280;57711;53.196;19.638;2023-05-23T03:26:37;100103.69;;;14.63;46.58
68380;BME280;57711;53.196;19.638;2023-05-23T03:29:04;100105.12;;;14.63;46.54
68380;BME280;57711;53.196;19.638;2023-05-23T03:31:33;100106.02;;;14.65;46.67
68380;BME280;57711;53.196;19.638;2023-05-23T03:34:01;100107.86;;;14.65;46.78
68380;BME280;57711;53.196;19.638;2023-05-23T03:36:28;100109.25;;;14.65;46.59
68380;BME280;57711;53.196;19.638;2023-05-23T03:38:55;100112.23;;;14.68;46.88
68380;BME280;57711;53.196;19.638;2023-05-23T03:41:23;100110.36;;;14.74;46.94
68380;BME280;57711;53.196;19.638;2023-05-23T03:43:51;100107.85;;;14.77;46.88
68380;BME280;57711;53.196;19.638;2023-05-23T03:46:18;100106.45;;;14.80;46.81
68380;BME280;57711;53.196;19.638;2023-05-23T03:48:45;100101.54;;;14.83;46.85
68380;BME280;57711;53.196;19.638;2023-05-23T03:51:14;100101.23;;;14.87;46.97
68380;BME280;57711;53.196;19.638;2023-05-23T03:53:42;100097.98;;;14.90;46.85
68380;BME280;57711;53.196;19.638;2023-05-23T03:56:09;100101.41;;;14.94;46.93
68380;BME280;57711;53.196;19.638;2023-05-23T03:58:36;100095.48;;;14.97;47.06
68380;BME280;57711;53.196;19.638;2023-05-23T04:01:07;100093.77;;;14.99;47.07
68380;BME280;57711;53.196;19.638;2023-05-23T04:06:17;100088.72;;;15.05;47.16
68380;BME280;57711;53.196;19.638;2023-05-23T04:08:47;100085.17;;;15.06;47.14
68380;BME280;57711;53.196;19.638;2023-05-23T04:11:15;100084.31;;;15.07;47.14
68380;BME280;57711;53.196;19.638;2023-05-23T04:13:43;100081.22;;;15.08;47.48
68380;BME280;57711;53.196;19.638;2023-05-23T04:16:10;100078.94;;;15.11;47.35
68380;BME280;57711;53.196;19.638;2023-05-23T04:18:37;100079.54;;;15.14;47.34
68380;BME280;57711;53.196;19.638;2023-05-23T04:21:06;100076.27;;;15.16;47.54
68380;BME280;57711;53.196;19.638;2023-05-23T04:23:38;100074.42;;;15.18;47.36
68380;BME280;57711;53.196;19.638;2023-05-23T04:26:06;100080.02;;;15.20;47.40
68380;BME280;57711;53.196;19.638;2023-05-23T04:28:38;100078.20;;;15.21;47.52
68380;BME280;57711;53.196;19.638;2023-05-23T04:31:06;100078.78;;;15.22;47.49
68380;BME280;57711;53.196;19.638;2023-05-23T04:33:35;100083.64;;;15.25;47.61
68380;BME280;57711;53.196;19.638;2023-05-23T04:36:03;100084.48;;;15.27;47.53
68380;BME280;57711;53.196;19.638;2023-05-23T04:38:32;100085.13;;;15.29;47.53
68380;BME280;57711;53.196;19.638;2023-05-23T04:40:59;100086.83;;;15.32;47.51
68380;BME280;57711;53.196;19.638;2023-05-23T04:43:45;100085.85;;;15.34;47.59
68380;BME280;57711;53.196;19.638;2023-05-23T04:46:21;100087.51;;;15.37;47.50
68380;BME280;57711;53.196;19.638;2023-05-23T04:49:12;100087.91;;;15.40;47.63
68380;BME280;57711;53.196;19.638;2023-05-23T04:51:40;100085.08;;;15.44;47.57
68380;BME280;57711;53.196;19.638;2023-05-23T04:54:14;100088.18;;;15.49;47.53
68380;BME280;57711;53.196;19.638;2023-05-23T04:56:42;100089.14;;;15.54;47.67
68380;BME280;57711;53.196;19.638;2023-05-23T04:59:09;100091.45;;;15.59;47.58
68380;BME280;57711;53.196;19.638;2023-05-23T05:01:37;100088.95;;;15.63;47.70
68380;BME280;57711;53.196;19.638;2023-05-23T05:04:08;100087.36;;;15.67;47.52
68380;BME280;57711;53.196;19.638;2023-05-23T05:06:35;100083.14;;;15.73;47.69
68380;BME280;57711;53.196;19.638;2023-05-23T05:09:03;100080.56;;;15.78;47.70
68380;BME280;57711;53.196;19.638;2023-05-23T05:11:30;100076.61;;;15.84;47.74
68380;BME280;57711;53.196;19.638;2023-05-23T05:13:57;100074.95;;;15.91;47.67
68380;BME280;57711;53.196;19.638;2023-05-23T05:16:25;100078.52;;;15.97;47.83
68380;BME280;57711;53.196;19.638;2023-05-23T05:18:52;100070.75;;;16.04;47.88
68380;BME280;57711;53.196;19.638;2023-05-23T05:21:20;100070.55;;;16.13;47.88
68380;BME280;57711;53.196;19.638;2023-05-23T05:23:49;100072.02;;;16.22;47.90
68380;BME280;57711;53.196;19.638;2023-05-23T05:26:17;100072.48;;;16.31;47.84
68380;BME280;57711;53.196;19.638;2023-05-23T05:28:44;100063.60;;;16.41;47.90
68380;BME280;57711;53.196;19.638;2023-05-23T05:31:12;100060.47;;;16.54;47.80
68380;BME280;57711;53.196;19.638;2023-05-23T05:33:42;100057.23;;;16.68;48.01
68380;BME280;57711;53.196;19.638;2023-05-23T05:36:13;100055.80;;;16.83;47.87
68380;BME280;57711;53.196;19.638;2023-05-23T05:38:42;100057.92;;;16.99;47.78
68380;BME280;57711;53.196;19.638;2023-05-23T05:41:09;100052.69;;;17.13;47.80
68380;BME280;57711;53.196;19.638;2023-05-23T05:43:45;100047.73;;;17.30;47.67
68380;BME280;57711;53.196;19.638;2023-05-23T05:46:13;100045.83;;;17.46;47.73
68380;BME280;57711;53.196;19.638;2023-05-23T05:48:40;100045.76;;;17.61;47.54
68380;BME280;57711;53.196;19.638;2023-05-23T05:51:10;100046.17;;;17.78;47.47
68380;BME280;57711;53.196;19.638;2023-05-23T05:53:39;100043.29;;;17.94;47.46
68380;BME280;57711;53.196;19.638;2023-05-23T05:56:06;100041.00;;;18.08;47.38
68380;BME280;57711;53.196;19.638;2023-05-23T05:58:36;100041.13;;;18.23;47.46
68380;BME280;57711;53.196;19.638;2023-05-23T06:01:06;100034.71;;;18.38;47.38
68380;BME280;57711;53.196;19.638;2023-05-23T06:03:34;100030.54;;;18.54;47.49
68380;BME280;57711;53.196;19.638;2023-05-23T06:06:01;100030.39;;;18.68;47.27
68380;BME280;57711;53.196;19.638;2023-05-23T06:08:29;100034.34;;;18.81;47.34
68380;BME280;57711;53.196;19.638;2023-05-23T06:10:56;100025.87;;;18.95;47.18
68380;BME280;57711;53.196;19.638;2023-05-23T06:13:24;100023.48;;;19.08;46.97
68380;BME280;57711;53.196;19.638;2023-05-23T06:15:52;100021.11;;;19.18;46.98
68380;BME280;57711;53.196;19.638;2023-05-23T06:18:20;100022.39;;;19.32;47.10
68380;BME280;57711;53.196;19.638;2023-05-23T06:20:48;100022.95;;;19.44;46.83
68380;BME280;57711;53.196;19.638;2023-05-23T06:23:15;100022.65;;;19.56;46.92
68380;BME280;57711;53.196;19.638;2023-05-23T06:25:43;100014.73;;;19.66;46.78
68380;BME280;57711;53.196;19.638;2023-05-23T06:28:11;100014.39;;;19.77;46.91
68380;BME280;57711;53.196;19.638;2023-05-23T06:30:38;100010.09;;;19.91;46.88
68380;BME280;57711;53.196;19.638;2023-05-23T06:33:06;100009.13;;;20.02;46.70
68380;BME280;57711;53.196;19.638;2023-05-23T06:35:34;100008.23;;;20.13;46.62
68380;BME280;57711;53.196;19.638;2023-05-23T06:38:01;100005.02;;;20.25;46.67
68380;BME280;57711;53.196;19.638;2023-05-23T06:40:29;100002.39;;;20.34;46.52
68380;BME280;57711;53.196;19.638;2023-05-23T06:42:56;100000.45;;;20.46;46.60
68380;BME280;57711;53.196;19.638;2023-05-23T06:45:44;99999.20;;;20.60;46.51
68380;BME280;57711;53.196;19.638;2023-05-23T06:48:12;99997.27;;;20.71;46.39
68380;BME280;57711;53.196;19.638;2023-05-23T06:50:40;99999.74;;;20.84;46.31
68380;BME280;57711;53.196;19.638;2023-05-23T06:53:09;99999.34;;;20.91;46.19
68380;BME280;57711;53.196;19.638;2023-05-23T06:55:36;100000.22;;;20.98;46.21
68380;BME280;57711;53.196;19.638;2023-05-23T06:58:04;99995.85;;;21.07;46.07
68380;BME280;57711;53.196;19.638;2023-05-23T07:00:32;99993.42;;;21.17;46.13
68380;BME280;57711;53.196;19.638;2023-05-23T07:03:19;99989.59;;;21.28;45.99
68380;BME280;57711;53.196;19.638;2023-05-23T07:05:47;99990.48;;;21.38;45.88
68380;BME280;57711;53.196;19.638;2023-05-23T07:08:16;99986.84;;;21.47;45.89
68380;BME280;57711;53.196;19.638;2023-05-23T07:10:54;99986.13;;;21.57;45.82
68380;BME280;57711;53.196;19.638;2023-05-23T07:13:27;99982.29;;;21.65;45.58
68380;BME280;57711;53.196;19.638;2023-05-23T07:15:55;99982.75;;;21.71;45.50
68380;BME280;57711;53.196;19.638;2023-05-23T07:18:23;99979.38;;;21.74;45.32
68380;BME280;57711;53.196;19.638;2023-05-23T07:20:50;99977.89;;;21.75;45.37
68380;BME280;57711;53.196;19.638;2023-05-23T07:23:19;99969.02;;;21.85;45.49
68380;BME280;57711;53.196;19.638;2023-05-23T07:25:46;99968.52;;;21.97;45.37
68380;BME280;57711;53.196;19.638;2023-05-23T07:28:32;99970.14;;;22.12;45.20
68380;BME280;57711;53.196;19.638;2023-05-23T07:31:00;99968.55;;;22.24;45.11
68380;BME280;57711;53.196;19.638;2023-05-23T07:33:28;99968.94;;;22.30;44.97
68380;BME280;57711;53.196;19.638;2023-05-23T07:35:59;99967.78;;;22.36;45.01
68380;BME280;57711;53.196;19.638;2023-05-23T07:38:27;99963.04;;;22.47;44.94
68380;BME280;57711;53.196;19.638;2023-05-23T07:40:54;99964.80;;;22.58;44.87
68380;BME280;57711;53.196;19.638;2023-05-23T07:43:37;99963.02;;;22.61;44.68
68380;BME280;57711;53.196;19.638;2023-05-23T07:46:04;99960.63;;;22.64;44.75
68380;BME280;57711;53.196;19.638;2023-05-23T07:48:32;99956.74;;;22.72;44.63
68380;BME280;57711;53.196;19.638;2023-05-23T07:51:00;99952.85;;;22.79;44.76
68380;BME280;57711;53.196;19.638;2023-05-23T07:53:27;99951.77;;;22.87;44.61
68380;BME280;57711;53.196;19.638;2023-05-23T07:55:55;99949.85;;;22.87;44.27
68380;BME280;57711;53.196;19.638;2023-05-23T07:58:25;99946.05;;;22.84;44.28
68380;BME280;57711;53.196;19.638;2023-05-23T08:00:52;99945.27;;;22.85;44.22
68380;BME280;57711;53.196;19.638;2023-05-23T08:03:51;99945.55;;;22.93;44.29
68380;BME280;57711;53.196;19.638;2023-05-23T08:06:23;99945.36;;;23.00;44.10
68380;BME280;57711;53.196;19.638;2023-05-23T08:08:50;99946.58;;;23.03;43.94
68380;BME280;57711;53.196;19.638;2023-05-23T08:11:17;99948.83;;;23.06;43.81
68380;BME280;57711;53.196;19.638;2023-05-23T08:13:48;99941.10;;;23.08;43.76
68380;BME280;57711;53.196;19.638;2023-05-23T08:16:34;99941.11;;;23.07;43.52
68380;BME280;57711;53.196;19.638;2023-05-23T08:19:02;99939.95;;;23.05;43.52
68380;BME280;57711;53.196;19.638;2023-05-23T08:21:30;99944.04;;;23.02;43.41
68380;BME280;57711;53.196;19.638;2023-05-23T08:23:58;99948.21;;;22.96;43.30
68380;BME280;57711;53.196;19.638;2023-05-23T08:26:26;99944.55;;;22.86;43.18
68380;BME280;57711;53.196;19.638;2023-05-23T08:28:56;99940.86;;;22.84;43.29
68380;BME280;57711;53.196;19.638;2023-05-23T08:31:23;99942.60;;;22.80;43.05
68380;BME280;57711;53.196;19.638;2023-05-23T08:33:50;99944.53;;;22.72;42.99
68380;BME280;57711;53.196;19.638;2023-05-23T08:36:18;99943.91;;;22.66;42.93
68380;BME280;57711;53.196;19.638;2023-05-23T08:38:45;99944.92;;;22.66;42.96
68380;BME280;57711;53.196;19.638;2023-05-23T08:41:29;99940.33;;;22.71;42.87
68380;BME280;57711;53.196;19.638;2023-05-23T08:44:02;99935.52;;;22.77;42.81
68380;BME280;57711;53.196;19.638;2023-05-23T08:46:39;99934.83;;;22.88;42.79
68380;BME280;57711;53.196;19.638;2023-05-23T08:49:12;99928.02;;;23.06;42.72
68380;BME280;57711;53.196;19.638;2023-05-23T08:51:44;99928.21;;;23.24;42.57
68380;BME280;57711;53.196;19.638;2023-05-23T08:54:16;99930.95;;;23.37;42.43
68380;BME280;57711;53.196;19.638;2023-05-23T08:56:44;99931.04;;;23.44;42.38
68380;BME280;57711;53.196;19.638;2023-05-23T08:59:13;99933.69;;;23.47;42.16
68380;BME280;57711;53.196;19.638;2023-05-23T09:01:42;99931.11;;;23.45;42.01
68380;BME280;57711;53.196;19.638;2023-05-23T09:04:11;99928.85;;;23.46;42.10
68380;BME280;57711;53.196;19.638;2023-05-23T09:06:54;99922.15;;;23.48;41.94
68380;BME280;57711;53.196;19.638;2023-05-23T09:09:21;99923.33;;;23.52;41.94
68380;BME280;57711;53.196;19.638;2023-05-23T09:11:50;99920.71;;;23.60;41.87
68380;BME280;57711;53.196;19.638;2023-05-23T09:14:18;99919.20;;;23.66;41.78
68380;BME280;57711;53.196;19.638;2023-05-23T09:16:47;99914.13;;;23.69;41.69
68380;BME280;57711;53.196;19.638;2023-05-23T09:19:17;99917.53;;;23.82;41.71
68380;BME280;57711;53.196;19.638;2023-05-23T09:21:49;99917.14;;;24.02;41.70
68380;BME280;57711;53.196;19.638;2023-05-23T09:24:35;99913.80;;;24.22;41.56
68380;BME280;57711;53.196;19.638;2023-05-23T09:27:05;99913.27;;;24.39;41.47
68380;BME280;57711;53.196;19.638;2023-05-23T09:29:37;99914.42;;;24.55;41.54
68380;BME280;57711;53.196;19.638;2023-05-23T09:32:19;99919.16;;;24.66;41.21
68380;BME280;57711;53.196;19.638;2023-05-23T09:34:57;99913.09;;;24.72;41.16
68380;BME280;57711;53.196;19.638;2023-05-23T09:37:37;99910.46;;;24.78;41.09
68380;BME280;57711;53.196;19.638;2023-05-23T09:40:06;99907.92;;;24.80;40.92
68380;BME280;57711;53.196;19.638;2023-05-23T09:42:49;99898.98;;;24.60;40.73
68380;BME280;57711;53.196;19.638;2023-05-23T09:45:16;99908.34;;;24.45;40.86
68380;BME280;57711;53.196;19.638;2023-05-23T09:47:51;99901.02;;;24.51;41.03
68380;BME280;57711;53.196;19.638;2023-05-23T09:50:19;99903.31;;;24.64;40.90
68380;BME280;57711;53.196;19.638;2023-05-23T09:52:48;99899.06;;;24.61;40.50
68380;BME280;57711;53.196;19.638;2023-05-23T09:55:15;99898.79;;;24.63;40.68
68380;BME280;57711;53.196;19.638;2023-05-23T09:57:43;99893.77;;;24.73;40.57
68380;BME280;57711;53.196;19.638;2023-05-23T10:00:11;99896.80;;;24.84;40.48
68380;BME280;57711;53.196;19.638;2023-05-23T10:02:57;99897.25;;;24.86;40.37
68380;BME280;57711;53.196;19.638;2023-05-23T10:05:44;99896.87;;;24.87;40.36
68380;BME280;57711;53.196;19.638;2023-05-23T10:08:19;99890.59;;;24.88;40.29
68380;BME280;57711;53.196;19.638;2023-05-23T10:13:50;99897.30;;;24.75;39.96
68380;BME280;57711;53.196;19.638;2023-05-23T10:16:27;99890.59;;;24.65;39.85
68380;BME280;57711;53.196;19.638;2023-05-23T10:19:05;99895.34;;;24.54;39.70
68380;BME280;57711;53.196;19.638;2023-05-23T10:21:36;99902.73;;;24.41;39.59
68380;BME280;57711;53.196;19.638;2023-05-23T10:24:06;99897.91;;;24.38;39.59
68380;BME280;57711;53.196;19.638;2023-05-23T10:26:34;99892.33;;;24.40;39.56
68380;BME280;57711;53.196;19.638;2023-05-23T10:29:02;99895.16;;;24.39;39.47
68380;BME280;57711;53.196;19.638;2023-05-23T10:31:31;99894.87;;;24.30;39.21
68380;BME280;57711;53.196;19.638;2023-05-23T10:34:16;99896.31;;;24.16;39.13
68380;BME280;57711;53.196;19.638;2023-05-23T10:36:58;99894.76;;;24.00;39.14
68380;BME280;57711;53.196;19.638;2023-05-23T10:42:53;99886.50;;;24.20;39.41
68380;BME280;57711;53.196;19.638;2023-05-23T10:45:22;99886.73;;;24.38;39.19
68380;BME280;57711;53.196;19.638;2023-05-23T10:47:53;99886.59;;;24.53;39.11
68380;BME280;57711;53.196;19.638;2023-05-23T10:50:32;99878.22;;;24.73;39.13
68380;BME280;57711;53.196;19.638;2023-05-23T10:53:04;99882.48;;;24.93;38.93
68380;BME280;57711;53.196;19.638;2023-05-23T10:55:36;99877.77;;;25.00;38.85
68380;BME280;57711;53.196;19.638;2023-05-23T10:58:11;99880.91;;;25.16;38.82
68380;BME280;57711;53.196;19.638;2023-05-23T11:00:52;99880.65;;;25.17;38.62
68380;BME280;57711;53.196;19.638;2023-05-23T11:03:50;99873.63;;;25.08;38.52
68380;BME280;57711;53.196;19.638;2023-05-23T11:06:40;99871.08;;;25.09;38.62
68380;BME280;57711;53.196;19.638;2023-05-23T11:09:18;99872.24;;;25.06;38.37
68380;BME280;57711;53.196;19.638;2023-05-23T11:12:04;99880.55;;;24.95;38.44
68380;BME280;57711;53.196;19.638;2023-05-23T11:17:00;99874.30;;;24.82;38.18
68380;BME280;57711;53.196;19.638;2023-05-23T11:20:05;99881.45;;;24.68;37.97
68380;BME280;57711;53.196;19.638;2023-05-23T11:22:34;99873.56;;;24.49;37.87
68380;BME280;57711;53.196;19.638;2023-05-23T11:25:06;99877.73;;;24.34;38.03
68380;BME280;57711;53.196;19.638;2023-05-23T11:27:39;99879.16;;;24.23;37.93
68380;BME280;57711;53.196;19.638;2023-05-23T11:30:17;99881.59;;;24.12;37.89
68380;BME280;57711;53.196;19.638;2023-05-23T11:32:52;99877.90;;;24.01;37.91
68380;BME280;57711;53.196;19.638;2023-05-23T11:35:20;99876.40;;;23.90;37.83
68380;BME280;57711;53.196;19.638;2023-05-23T11:37:47;99879.66;;;23.81;37.73
68380;BME280;57711;53.196;19.638;2023-05-23T11:40:29;99874.89;;;23.70;37.72
68380;BME280;57711;53.196;19.638;2023-05-23T11:42:59;99871.04;;;23.57;37.52
68380;BME280;57711;53.196;19.638;2023-05-23T11:45:27;99870.65;;;23.48;37.58
68380;BME280;57711;53.196;19.638;2023-05-23T11:47:55;99869.27;;;23.40;37.62
68380;BME280;57711;53.196;19.638;2023-05-23T11:50:22;99864.55;;;23.38;37.64
68380;BME280;57711;53.196;19.638;2023-05-23T11:52:53;99862.78;;;23.40;37.62
68380;BME280;57711;53.196;19.638;2023-05-23T11:55:21;99868.48;;;23.47;37.63
68380;BME280;57711;53.196;19.638;2023-05-23T11:57:49;99861.73;;;23.55;37.61
68380;BME280;57711;53.196;19.638;2023-05-23T12:00:18;99862.87;;;23.64;37.54
68380;BME280;57711;53.196;19.638;2023-05-23T12:02:45;99857.10;;;23.75;37.57
68380;BME280;57711;53.196;19.638;2023-05-23T12:05:16;99852.48;;;23.90;37.51
68380;BME280;57711;53.196;19.638;2023-05-23T12:07:47;99849.90;;;23.99;37.42
68380;BME280;57711;53.196;19.638;2023-05-23T12:10:16;99847.77;;;23.99;37.22
68380;BME280;57711;53.196;19.638;2023-05-23T12:12:43;99841.65;;;24.03;37.31
68380;BME280;57711;53.196;19.638;2023-05-23T12:15:11;99850.60;;;24.09;37.25
68380;BME280;57711;53.196;19.638;2023-05-23T12:17:45;99846.36;;;24.22;37.38
68380;BME280;57711;53.196;19.638;2023-05-23T12:20:13;99845.34;;;24.40;37.24
68380;BME280;57711;53.196;19.638;2023-05-23T12:22:41;99841.41;;;24.51;37.18
68380;BME280;57711;53.196;19.638;2023-05-23T12:25:08;99841.20;;;24.64;37.13
68380;BME280;57711;53.196;19.638;2023-05-23T12:27:39;99840.65;;;24.81;37.17
68380;BME280;57711;53.196;19.638;2023-05-23T12:30:10;99846.88;;;24.96;37.22
68380;BME280;57711;53.196;19.638;2023-05-23T12:32:39;99849.38;;;24.96;36.84
68380;BME280;57711;53.196;19.638;2023-05-23T12:35:08;99840.96;;;24.92;36.77
68380;BME280;57711;53.196;19.638;2023-05-23T12:37:40;99840.86;;;24.90;36.70
68380;BME280;57711;53.196;19.638;2023-05-23T12:40:13;99839.27;;;24.83;36.76
68380;BME280;57711;53.196;19.638;2023-05-23T12:42:58;99835.17;;;24.75;36.62
68380;BME280;57711;53.196;19.638;2023-05-23T12:45:33;99830.14;;;24.68;36.69
68380;BME280;57711;53.196;19.638;2023-05-23T12:48:03;99824.79;;;24.64;36.69
68380;BME280;57711;53.196;19.638;2023-05-23T12:50:30;99825.58;;;24.65;36.71
68380;BME280;57711;53.196;19.638;2023-05-23T12:52:58;99824.34;;;24.64;36.62
68380;BME280;57711;53.196;19.638;2023-05-23T12:55:25;99821.69;;;24.58;36.62
68380;BME280;57711;53.196;19.638;2023-05-23T12:57:53;99816.09;;;24.52;36.63
68380;BME280;57711;53.196;19.638;2023-05-23T13:00:20;99816.15;;;24.46;36.46
68380;BME280;57711;53.196;19.638;2023-05-23T13:02:48;99812.89;;;24.35;36.45
68380;BME280;57711;53.196;19.638;2023-05-23T13:05:16;99818.46;;;24.25;36.33
68380;BME280;57711;53.196;19.638;2023-05-23T13:07:43;99821.17;;;24.12;36.25
68380;BME280;57711;53.196;19.638;2023-05-23T13:10:11;99823.30;;;23.94;36.21
68380;BME280;57711;53.196;19.638;2023-05-23T13:12:38;99823.62;;;23.83;36.29
68380;BME280;57711;53.196;19.638;2023-05-23T13:15:05;99818.95;;;23.73;36.21
68380;BME280;57711;53.196;19.638;2023-05-23T13:17:33;99815.56;;;23.67;36.21
68380;BME280;57711;53.196;19.638;2023-05-23T13:20:00;99814.06;;;23.65;36.32